sensor_id;sensor_type;location;lat;lon;timestamp;pressure;altitude;pressure_sealevel;temperature;humidity
34185;BME280;20454;48.100;11.776;2022-10-18T00:01:55;96395.91;;;11.61;99.92
34185;BME280;20454;48.100;11.776;2022-10-18T00:04:21;96396.53;;;11.58;99.71
34185;BME280;20454;48.100;11.776;2022-10-18T00:06:47;96384.63;;;11.52;99.91
34185;BME280;20454;48.100;11.776;2022-10-18T00:09:13;96389.13;;;11.48;100.00
34185;BME280;20454;48.100;11.776;2022-10-18T00:11:39;96399.69;;;11.51;100.00
34185;BME280;20454;48.100;11.776;2022-10-18T00:14:05;96400.59;;;11.47;100.00
34185;BME280;20454;48.100;11.776;2022-10-18T00:16:31;96403.69;;;11.45;99.48
34185;BME280;20454;48.100;11.776;2022-10-18T00:18:56;96398.72;;;11.42;100.00
34185;BME280;20454;48.100;11.776;2022-10-18T00:21:24;96401.28;;;11.39;100.00
34185;BME280;20454;48.100;11.776;2022-10-18T00:23:51;96394.69;;;11.35;100.00
34185;BME280;20454;48.100;11.776;2022-10-18T00:26:25;96396.41;;;11.31;100.00
34185;BME280;20454;48.100;11.776;2022-10-18T00:28:57;96402.63;;;11.28;100.00
34185;BME280;20454;48.100;11.776;2022-10-18T00:31:33;96395.25;;;11.18;100.00
34185;BME280;20454;48.100;11.776;2022-10-18T00:34:06;96398.84;;;11.19;100.00
34185;BME280;20454;48.100;11.776;2022-10-18T00:36:33;96411.44;;;11.16;100.00
34185;BME280;20454;48.100;11.776;2022-10-18T00:39:00;96402.66;;;11.09;100.00
34185;BME280;20454;48.100;11.776;2022-10-18T00:41:29;96396.03;;;11.05;100.00
34185;BME280;20454;48.100;11.776;2022-10-18T00:46:40;96404.75;;;10.99;100.00
34185;BME280;20454;48.100;11.776;2022-10-18T00:49:12;96400.09;;;10.94;100.00
34185;BME280;20454;48.100;11.776;2022-10-18T00:51:59;96402.66;;;10.91;100.00
34185;BME280;20454;48.100;11.776;2022-10-18T00:54:28;96404.41;;;10.87;100.00
34185;BME280;20454;48.100;11.776;2022-10-18T00:56:55;96390.56;;;10.82;100.00
34185;BME280;20454;48.100;11.776;2022-10-18T00:59:21;96392.06;;;10.74;100.00
34185;BME280;20454;48.100;11.776;2022-10-18T01:01:47;96398.47;;;10.75;100.00
34185;BME280;20454;48.100;11.776;2022-10-18T01:04:15;96396.28;;;10.72;100.00
34185;BME280;20454;48.100;11.776;2022-10-18T01:06:59;96401.31;;;10.70;100.00
34185;BME280;20454;48.100;11.776;2022-10-18T01:12:32;96402.72;;;10.67;100.00
34185;BME280;20454;48.100;11.776;2022-10-18T01:15:26;96405.63;;;10.62;100.00
34185;BME280;20454;48.100;11.776;2022-10-18T01:27:19;96393.34;;;10.45;100.00
34185;BME280;20454;48.100;11.776;2022-10-18T01:33:45;96368.38;;;10.40;100.00
34185;BME280;20454;48.100;11.776;2022-10-18T01:38:52;96381.22;;;10.36;100.00
34185;BME280;20454;48.100;11.776;2022-10-18T01:41:21;96373.19;;;10.34;100.00
34185;BME280;20454;48.100;11.776;2022-10-18T01:43:52;96379.03;;;10.33;100.00
34185;BME280;20454;48.100;11.776;2022-10-18T01:46:23;96373.25;;;10.29;100.00
34185;BME280;20454;48.100;11.776;2022-10-18T01:48:51;96374.63;;;10.32;100.00
34185;BME280;20454;48.100;11.776;2022-10-18T01:51:25;96380.75;;;10.29;100.00
34185;BME280;20454;48.100;11.776;2022-10-18T01:53:50;96381.31;;;10.31;100.00
34185;BME280;20454;48.100;11.776;2022-10-18T01:56:31;96373.25;;;10.29;100.00
34185;BME280;20454;48.100;11.776;2022-10-18T01:59:16;96385.75;;;10.32;100.00
34185;BME280;20454;48.100;11.776;2022-10-18T02:04:52;96371.66;;;10.23;100.00
34185;BME280;20454;48.100;11.776;2022-10-18T02:07:38;96366.16;;;10.18;100.00
34185;BME280;20454;48.100;11.776;2022-10-18T02:10:49;96377.00;;;10.20;100.00
34185;BME280;20454;48.100;11.776;2022-10-18T02:13:07;96382.03;;;10.18;100.00
34185;BME280;20454;48.100;11.776;2022-10-18T02:15:39;96377.91;;;10.15;100.00
34185;BME280;20454;48.100;11.776;2022-10-18T02:18:14;96376.25;;;10.14;100.00
34185;BME280;20454;48.100;11.776;2022-10-18T02:20:41;96375.69;;;10.12;100.00
34185;BME280;20454;48.100;11.776;2022-10-18T02:23:07;96374.03;;;10.11;100.00
34185;BME280;20454;48.100;11.776;2022-10-18T02:25:35;96373.00;;;10.07;100.00
34185;BME280;20454;48.100;11.776;2022-10-18T02:28:02;96374.13;;;10.06;100.00
34185;BME280;20454;48.100;11.776;2022-10-18T02:33:52;96381.09;;;10.04;100.00
34185;BME280;20454;48.100;11.776;2022-10-18T02:36:45;96367.84;;;9.96;100.00
34185;BME280;20454;48.100;11.776;2022-10-18T02:39:17;96375.06;;;9.97;100.00
34185;BME280;20454;48.100;11.776;2022-10-18T02:41:44;96385.31;;;9.96;100.00
34185;BME280;20454;48.100;11.776;2022-10-18T02:44:10;96394.75;;;10.00;100.00
34185;BME280;20454;48.100;11.776;2022-10-18T02:46:36;96396.69;;;10.00;100.00
34185;BME280;20454;48.100;11.776;2022-10-18T02:49:02;96376.69;;;9.98;100.00
34185;BME280;20454;48.100;11.776;2022-10-18T02:51:28;96392.78;;;10.01;100.00
34185;BME280;20454;48.100;11.776;2022-10-18T02:53:53;96395.03;;;9.99;100.00
34185;BME280;20454;48.100;11.776;2022-10-18T02:56:19;96396.44;;;9.96;100.00
34185;BME280;20454;48.100;11.776;2022-10-18T02:58:45;96389.53;;;9.94;100.00
34185;BME280;20454;48.100;11.776;2022-10-18T03:01:11;96401.47;;;9.94;100.00
34185;BME280;20454;48.100;11.776;2022-10-18T03:03:37;96386.22;;;9.92;100.00
34185;BME280;20454;48.100;11.776;2022-10-18T03:06:03;96393.19;;;9.89;100.00
34185;BME280;20454;48.100;11.776;2022-10-18T03:08:29;96382.69;;;9.86;100.00
34185;BME280;20454;48.100;11.776;2022-10-18T03:10:55;96389.66;;;9.84;100.00
34185;BME280;20454;48.100;11.776;2022-10-18T03:13:20;96379.97;;;9.81;100.00
34185;BME280;20454;48.100;11.776;2022-10-18T03:15:47;96386.94;;;9.79;100.00
34185;BME280;20454;48.100;11.776;2022-10-18T03:18:13;96391.38;;;9.80;100.00
34185;BME280;20454;48.100;11.776;2022-10-18T03:20:39;96383.09;;;9.75;100.00
34185;BME280;20454;48.100;11.776;2022-10-18T03:23:05;96389.47;;;9.75;100.00
34185;BME280;20454;48.100;11.776;2022-10-18T03:25:32;96389.75;;;9.74;100.00
34185;BME280;20454;48.100;11.776;2022-10-18T03:27:59;96385.94;;;9.70;100.00
34185;BME280;20454;48.100;11.776;2022-10-18T03:30:24;96393.44;;;9.69;100.00
34185;BME280;20454;48.100;11.776;2022-10-18T03:32:50;96396.81;;;9.66;100.00
34185;BME280;20454;48.100;11.776;2022-10-18T03:35:16;96404.63;;;9.64;100.00
34185;BME280;20454;48.100;11.776;2022-10-18T03:37:42;96404.06;;;9.62;100.00
34185;BME280;20454;48.100;11.776;2022-10-18T03:40:08;96394.97;;;9.57;100.00
34185;BME280;20454;48.100;11.776;2022-10-18T03:42:33;96400.53;;;9.57;100.00
34185;BME280;20454;48.100;11.776;2022-10-18T03:44:59;96411.34;;;9.58;100.00
34185;BME280;20454;48.100;11.776;2022-10-18T03:47:25;96402.78;;;9.55;100.00
34185;BME280;20454;48.100;11.776;2022-10-18T03:49:51;96420.25;;;9.55;100.00
34185;BME280;20454;48.100;11.776;2022-10-18T03:52:16;96412.22;;;9.54;100.00
34185;BME280;20454;48.100;11.776;2022-10-18T03:54:42;96415.00;;;9.54;100.00
34185;BME280;20454;48.100;11.776;2022-10-18T03:57:08;96423.34;;;9.54;100.00
34185;BME280;20454;48.100;11.776;2022-10-18T03:59:33;96421.38;;;9.54;100.00
34185;BME280;20454;48.100;11.776;2022-10-18T04:33:05;96429.38;;;9.33;100.00
34185;BME280;20454;48.100;11.776;2022-10-18T04:35:31;96428.25;;;9.34;100.00
34185;BME280;20454;48.100;11.776;2022-10-18T04:37:56;96420.19;;;9.32;100.00
34185;BME280;20454;48.100;11.776;2022-10-18T04:40:22;96426.88;;;9.31;100.00
34185;BME280;20454;48.100;11.776;2022-10-18T04:42:48;96428.28;;;9.29;100.00
34185;BME280;20454;48.100;11.776;2022-10-18T04:45:13;96425.50;;;9.29;100.00
34185;BME280;20454;48.100;11.776;2022-10-18T04:47:39;96418.59;;;9.26;100.00
34185;BME280;20454;48.100;11.776;2022-10-18T04:50:05;96432.97;;;9.33;100.00
34185;BME280;20454;48.100;11.776;2022-10-18T04:52:31;96428.78;;;9.36;100.00
34185;BME280;20454;48.100;11.776;2022-10-18T04:54:57;96416.63;;;9.32;100.00
34185;BME280;20454;48.100;11.776;2022-10-18T04:57:23;96427.13;;;9.35;100.00
34185;BME280;20454;48.100;11.776;2022-10-18T04:59:48;96422.97;;;9.32;100.00
34185;BME280;20454;48.100;11.776;2022-10-18T05:02:14;96414.97;;;9.31;100.00
34185;BME280;20454;48.100;11.776;2022-10-18T05:04:40;96421.31;;;9.31;100.00
34185;BME280;20454;48.100;11.776;2022-10-18T05:07:05;96419.69;;;9.30;100.00
34185;BME280;20454;48.100;11.776;2022-10-18T05:09:32;96411.63;;;9.29;100.00
34185;BME280;20454;48.100;11.776;2022-10-18T05:11:57;96406.63;;;9.31;100.00
34185;BME280;20454;48.100;11.776;2022-10-18T05:14:23;96398.59;;;9.29;100.00
34185;BME280;20454;48.100;11.776;2022-10-18T05:16:49;96398.59;;;9.29;100.00
34185;BME280;20454;48.100;11.776;2022-10-18T05:19:14;96409.69;;;9.29;100.00
34185;BME280;20454;48.100;11.776;2022-10-18T05:21:40;96401.00;;;9.36;100.00
34185;BME280;20454;48.100;11.776;2022-10-18T05:24:06;96406.25;;;9.42;100.00
34185;BME280;20454;48.100;11.776;2022-10-18T05:26:32;96402.28;;;9.48;100.00
34185;BME280;20454;48.100;11.776;2022-10-18T05:28:57;96409.47;;;9.54;100.00
34185;BME280;20454;48.100;11.776;2022-10-18T05:31:23;96405.25;;;9.56;100.00
34185;BME280;20454;48.100;11.776;2022-10-18T05:33:49;96397.97;;;9.60;100.00
34185;BME280;20454;48.100;11.776;2022-10-18T05:36:15;96405.66;;;9.68;100.00
34185;BME280;20454;48.100;11.776;2022-10-18T05:38:42;96403.41;;;9.70;100.00
34185;BME280;20454;48.100;11.776;2022-10-18T05:41:09;96402.25;;;9.76;99.90
34185;BME280;20454;48.100;11.776;2022-10-18T05:43:34;96391.38;;;9.80;99.79
34185;BME280;20454;48.100;11.776;2022-10-18T05:46:00;96395.50;;;9.82;100.00
34185;BME280;20454;48.100;11.776;2022-10-18T05:48:26;96378.03;;;9.82;100.00
34185;BME280;20454;48.100;11.776;2022-10-18T05:50:52;96391.03;;;9.86;99.74
34185;BME280;20454;48.100;11.776;2022-10-18T05:53:17;96382.38;;;9.88;99.61
34185;BME280;20454;48.100;11.776;2022-10-18T05:55:43;96373.22;;;9.87;99.72
34185;BME280;20454;48.100;11.776;2022-10-18T05:58:09;96386.97;;;9.97;100.00
34185;BME280;20454;48.100;11.776;2022-10-18T06:00:35;96395.56;;;10.01;100.00
34185;BME280;20454;48.100;11.776;2022-10-18T06:03:01;96408.25;;;10.12;100.00
34185;BME280;20454;48.100;11.776;2022-10-18T06:05:27;96412.63;;;10.18;99.10
34185;BME280;20454;48.100;11.776;2022-10-18T06:07:53;96414.13;;;10.29;97.92
34185;BME280;20454;48.100;11.776;2022-10-18T06:10:18;96417.59;;;10.39;97.77
34185;BME280;20454;48.100;11.776;2022-10-18T06:12:44;96417.25;;;10.46;97.22
34185;BME280;20454;48.100;11.776;2022-10-18T06:15:10;96419.66;;;10.52;97.87
34185;BME280;20454;48.100;11.776;2022-10-18T06:17:36;96417.41;;;10.54;97.62
34185;BME280;20454;48.100;11.776;2022-10-18T06:20:02;96428.47;;;10.59;96.80
34185;BME280;20454;48.100;11.776;2022-10-18T06:22:27;96437.59;;;10.65;96.50
34185;BME280;20454;48.100;11.776;2022-10-18T06:24:53;96427.13;;;10.75;96.51
34185;BME280;20454;48.100;11.776;2022-10-18T06:27:19;96422.25;;;10.86;96.02
34185;BME280;20454;48.100;11.776;2022-10-18T06:29:44;96410.94;;;10.96;96.32
34185;BME280;20454;48.100;11.776;2022-10-18T06:32:10;96424.59;;;11.11;96.37
34185;BME280;20454;48.100;11.776;2022-10-18T06:34:36;96420.31;;;11.18;95.34
34185;BME280;20454;48.100;11.776;2022-10-18T06:37:02;96431.50;;;11.32;94.73
34185;BME280;20454;48.100;11.776;2022-10-18T06:39:27;96424.13;;;11.41;94.30
34185;BME280;20454;48.100;11.776;2022-10-18T06:41:53;96426.22;;;11.49;94.13
34185;BME280;20454;48.100;11.776;2022-10-18T06:44:20;96425.75;;;11.60;93.37
34185;BME280;20454;48.100;11.776;2022-10-18T06:46:47;96418.25;;;11.74;93.10
34185;BME280;20454;48.100;11.776;2022-10-18T06:49:14;96416.00;;;11.90;93.10
34185;BME280;20454;48.100;11.776;2022-10-18T06:51:42;96422.50;;;11.99;93.56
34185;BME280;20454;48.100;11.776;2022-10-18T06:54:07;96418.69;;;12.08;92.65
34185;BME280;20454;48.100;11.776;2022-10-18T06:56:34;96406.69;;;12.08;92.69
34185;BME280;20454;48.100;11.776;2022-10-18T06:59:00;96410.44;;;12.17;92.76
34185;BME280;20454;48.100;11.776;2022-10-18T07:01:26;96413.72;;;12.19;94.10
34185;BME280;20454;48.100;11.776;2022-10-18T07:03:54;96412.50;;;12.25;93.65
34185;BME280;20454;48.100;11.776;2022-10-18T07:06:21;96411.88;;;12.28;93.83
34185;BME280;20454;48.100;11.776;2022-10-18T07:08:49;96412.56;;;12.33;94.69
34185;BME280;20454;48.100;11.776;2022-10-18T07:11:23;96416.72;;;12.36;94.82
34185;BME280;20454;48.100;11.776;2022-10-18T07:13:50;96434.81;;;12.38;93.78
34185;BME280;20454;48.100;11.776;2022-10-18T07:16:17;96444.53;;;12.41;93.96
34185;BME280;20454;48.100;11.776;2022-10-18T07:18:46;96433.56;;;12.44;94.40
34185;BME280;20454;48.100;11.776;2022-10-18T07:21:16;96446.47;;;12.54;94.40
34185;BME280;20454;48.100;11.776;2022-10-18T07:23:43;96446.88;;;12.61;93.98
34185;BME280;20454;48.100;11.776;2022-10-18T07:26:32;96456.06;;;12.75;94.45
34185;BME280;20454;48.100;11.776;2022-10-18T07:29:10;96456.38;;;12.87;93.49
34185;BME280;20454;48.100;11.776;2022-10-18T07:31:37;96447.56;;;12.93;94.00
34185;BME280;20454;48.100;11.776;2022-10-18T07:34:04;96454.25;;;13.06;94.21
34185;BME280;20454;48.100;11.776;2022-10-18T07:36:31;96446.63;;;13.11;92.63
34185;BME280;20454;48.100;11.776;2022-10-18T07:38:56;96446.38;;;13.21;92.56
34185;BME280;20454;48.100;11.776;2022-10-18T07:41:22;96439.91;;;13.34;92.92
34185;BME280;20454;48.100;11.776;2022-10-18T07:43:50;96443.47;;;13.48;93.41
34185;BME280;20454;48.100;11.776;2022-10-18T07:46:18;96437.47;;;13.63;93.66
34185;BME280;20454;48.100;11.776;2022-10-18T07:48:44;96439.75;;;13.83;93.56
34185;BME280;20454;48.100;11.776;2022-10-18T07:51:10;96435.56;;;14.03;93.42
34185;BME280;20454;48.100;11.776;2022-10-18T07:53:37;96432.91;;;14.20;93.29
34185;BME280;20454;48.100;11.776;2022-10-18T07:56:06;96429.19;;;14.41;89.43
34185;BME280;20454;48.100;11.776;2022-10-18T07:58:32;96442.16;;;14.68;86.83
34185;BME280;20454;48.100;11.776;2022-10-18T08:01:06;96439.84;;;14.70;86.22
34185;BME280;20454;48.100;11.776;2022-10-18T08:03:33;96442.34;;;14.80;85.69
34185;BME280;20454;48.100;11.776;2022-10-18T08:05:59;96429.00;;;14.85;85.40
34185;BME280;20454;48.100;11.776;2022-10-18T08:08:25;96425.72;;;14.91;85.75
34185;BME280;20454;48.100;11.776;2022-10-18T08:10:51;96438.59;;;15.01;85.85
34185;BME280;20454;48.100;11.776;2022-10-18T08:13:17;96434.81;;;15.05;83.69
34185;BME280;20454;48.100;11.776;2022-10-18T08:15:43;96446.72;;;15.11;83.67
34185;BME280;20454;48.100;11.776;2022-10-18T08:18:10;96445.03;;;15.18;83.78
34185;BME280;20454;48.100;11.776;2022-10-18T08:20:36;96444.44;;;15.38;83.26
34185;BME280;20454;48.100;11.776;2022-10-18T08:23:03;96446.41;;;15.46;82.13
34185;BME280;20454;48.100;11.776;2022-10-18T08:25:29;96447.41;;;15.50;81.30
34185;BME280;20454;48.100;11.776;2022-10-18T08:27:56;96443.28;;;15.56;79.35
34185;BME280;20454;48.100;11.776;2022-10-18T08:30:21;96443.59;;;15.55;80.06
34185;BME280;20454;48.100;11.776;2022-10-18T08:32:48;96446.25;;;15.51;80.87
34185;BME280;20454;48.100;11.776;2022-10-18T08:35:14;96445.56;;;15.54;81.86
34185;BME280;20454;48.100;11.776;2022-10-18T08:37:39;96438.47;;;15.65;81.78
34185;BME280;20454;48.100;11.776;2022-10-18T08:40:06;96443.41;;;15.85;80.17
34185;BME280;20454;48.100;11.776;2022-10-18T08:45:11;96442.66;;;16.22;78.15
34185;BME280;20454;48.100;11.776;2022-10-18T08:47:41;96442.16;;;16.29;78.19
34185;BME280;20454;48.100;11.776;2022-10-18T08:50:20;96442.78;;;16.34;77.39
34185;BME280;20454;48.100;11.776;2022-10-18T08:58:22;96428.41;;;16.44;76.93
34185;BME280;20454;48.100;11.776;2022-10-18T09:01:12;96432.94;;;16.66;76.92
34185;BME280;20454;48.100;11.776;2022-10-18T09:09:58;96426.09;;;17.54;71.75
34185;BME280;20454;48.100;11.776;2022-10-18T09:16:10;96419.78;;;17.89;71.30
34185;BME280;20454;48.100;11.776;2022-10-18T09:19:10;96418.31;;;18.36;69.56
34185;BME280;20454;48.100;11.776;2022-10-18T09:24:14;96417.88;;;19.06;64.49
34185;BME280;20454;48.100;11.776;2022-10-18T09:26:48;96414.47;;;19.37;63.01
34185;BME280;20454;48.100;11.776;2022-10-18T09:29:42;96412.94;;;19.79;61.25
34185;BME280;20454;48.100;11.776;2022-10-18T09:35:13;96408.56;;;20.36;59.19
34185;BME280;20454;48.100;11.776;2022-10-18T09:37:41;96410.78;;;20.58;58.78
34185;BME280;20454;48.100;11.776;2022-10-18T09:40:28;96406.13;;;21.12;59.10
34185;BME280;20454;48.100;11.776;2022-10-18T09:43:11;96395.84;;;21.38;55.93
34185;BME280;20454;48.100;11.776;2022-10-18T09:45:42;96401.69;;;21.80;55.68
34185;BME280;20454;48.100;11.776;2022-10-18T09:48:18;96401.44;;;22.26;55.05
34185;BME280;20454;48.100;11.776;2022-10-18T09:51:10;96402.16;;;22.61;52.68
34185;BME280;20454;48.100;11.776;2022-10-18T09:56:54;96384.97;;;23.74;52.33
34185;BME280;20454;48.100;11.776;2022-10-18T10:02:04;96381.88;;;24.85;49.30
34185;BME280;20454;48.100;11.776;2022-10-18T10:04:30;96384.78;;;25.35;48.14
34185;BME280;20454;48.100;11.776;2022-10-18T10:07:00;96386.00;;;25.95;47.53
34185;BME280;20454;48.100;11.776;2022-10-18T10:09:30;96381.59;;;26.15;45.34
34185;BME280;20454;48.100;11.776;2022-10-18T10:12:00;96387.44;;;26.47;44.67
34185;BME280;20454;48.100;11.776;2022-10-18T10:14:28;96384.16;;;26.38;44.77
34185;BME280;20454;48.100;11.776;2022-10-18T10:17:28;96376.13;;;25.79;46.27
34185;BME280;20454;48.100;11.776;2022-10-18T10:22:38;96386.41;;;24.20;48.18
34185;BME280;20454;48.100;11.776;2022-10-18T10:25:06;96377.63;;;23.73;50.21
34185;BME280;20454;48.100;11.776;2022-10-18T10:27:43;96369.66;;;23.04;51.79
34185;BME280;20454;48.100;11.776;2022-10-18T10:30:30;96379.94;;;22.67;54.08
34185;BME280;20454;48.100;11.776;2022-10-18T10:32:57;96381.00;;;22.36;54.69
34185;BME280;20454;48.100;11.776;2022-10-18T10:35:39;96382.78;;;22.25;56.16
34185;BME280;20454;48.100;11.776;2022-10-18T10:38:05;96384.34;;;22.23;58.30
34185;BME280;20454;48.100;11.776;2022-10-18T10:40:45;96374.84;;;22.53;56.40
34185;BME280;20454;48.100;11.776;2022-10-18T10:43:32;96370.69;;;22.92;54.64
34185;BME280;20454;48.100;11.776;2022-10-18T10:46:14;96364.22;;;23.44;53.92
34185;BME280;20454;48.100;11.776;2022-10-18T10:51:13;96362.34;;;23.84;50.56
34185;BME280;20454;48.100;11.776;2022-10-18T10:54:01;96364.72;;;23.79;49.90
34185;BME280;20454;48.100;11.776;2022-10-18T10:56:34;96357.88;;;23.83;50.91
34185;BME280;20454;48.100;11.776;2022-10-18T10:59:37;96361.88;;;23.79;49.88
34185;BME280;20454;48.100;11.776;2022-10-18T11:02:22;96351.22;;;23.43;50.32
34185;BME280;20454;48.100;11.776;2022-10-18T11:04:53;96349.94;;;23.14;51.27
34185;BME280;20454;48.100;11.776;2022-10-18T11:07:35;96355.47;;;23.04;51.99
34185;BME280;20454;48.100;11.776;2022-10-18T11:15:19;96337.69;;;22.84;54.22
34185;BME280;20454;48.100;11.776;2022-10-18T11:20:52;96341.47;;;22.92;52.90
34185;BME280;20454;48.100;11.776;2022-10-18T11:23:20;96339.22;;;22.78;53.59
34185;BME280;20454;48.100;11.776;2022-10-18T11:35:18;96326.63;;;22.53;54.60
34185;BME280;20454;48.100;11.776;2022-10-18T11:38:13;96320.50;;;22.51;54.27
34185;BME280;20454;48.100;11.776;2022-10-18T11:43:36;96319.19;;;22.68;54.31
34185;BME280;20454;48.100;11.776;2022-10-18T11:49:21;96315.38;;;22.83;52.12
34185;BME280;20454;48.100;11.776;2022-10-18T11:54:54;96301.94;;;23.06;52.44
34185;BME280;20454;48.100;11.776;2022-10-18T11:57:50;96306.91;;;23.38;52.33
34185;BME280;20454;48.100;11.776;2022-10-18T12:00:24;96302.06;;;23.68;50.48
34185;BME280;20454;48.100;11.776;2022-10-18T12:05:50;96303.59;;;24.28;50.06
34185;BME280;20454;48.100;11.776;2022-10-18T12:10:55;96293.59;;;24.45;48.26
34185;BME280;20454;48.100;11.776;2022-10-18T12:13:52;96285.53;;;24.54;47.83
34185;BME280;20454;48.100;11.776;2022-10-18T12:16:26;96277.91;;;24.58;48.29
34185;BME280;20454;48.100;11.776;2022-10-18T12:18:56;96288.34;;;24.50;48.48
34185;BME280;20454;48.100;11.776;2022-10-18T12:21:28;96285.88;;;24.45;49.01
34185;BME280;20454;48.100;11.776;2022-10-18T12:24:01;96273.59;;;24.38;49.40
34185;BME280;20454;48.100;11.776;2022-10-18T12:26:28;96271.84;;;24.23;50.60
34185;BME280;20454;48.100;11.776;2022-10-18T12:29:11;96283.06;;;24.09;49.16
34185;BME280;20454;48.100;11.776;2022-10-18T12:32:06;96265.38;;;23.89;49.39
34185;BME280;20454;48.100;11.776;2022-10-18T12:37:28;96252.09;;;23.34;51.88
34185;BME280;20454;48.100;11.776;2022-10-18T12:40:13;96270.25;;;23.26;52.71
34185;BME280;20454;48.100;11.776;2022-10-18T12:42:44;96255.81;;;23.12;53.20
34185;BME280;20454;48.100;11.776;2022-10-18T12:45:30;96266.66;;;23.07;53.91
34185;BME280;20454;48.100;11.776;2022-10-18T12:48:00;96259.25;;;22.99;53.73
34185;BME280;20454;48.100;11.776;2022-10-18T12:50:39;96253.03;;;22.90;53.01
34185;BME280;20454;48.100;11.776;2022-10-18T12:55:38;96258.38;;;22.69;54.92
34185;BME280;20454;48.100;11.776;2022-10-18T13:16:51;96258.28;;;22.62;56.07
34185;BME280;20454;48.100;11.776;2022-10-18T13:26:39;96254.94;;;23.08;53.41
34185;BME280;20454;48.100;11.776;2022-10-18T13:28:56;96243.53;;;23.31;53.67
34185;BME280;20454;48.100;11.776;2022-10-18T13:39:37;96249.00;;;23.83;51.95
34185;BME280;20454;48.100;11.776;2022-10-18T13:44:38;96239.84;;;23.93;51.90
34185;BME280;20454;48.100;11.776;2022-10-18T14:03:43;96261.97;;;21.98;57.24
34185;BME280;20454;48.100;11.776;2022-10-18T14:06:21;96256.41;;;21.83;57.83
34185;BME280;20454;48.100;11.776;2022-10-18T14:09:17;96256.59;;;21.71;58.12
34185;BME280;20454;48.100;11.776;2022-10-18T14:15:15;96261.25;;;21.63;58.41
34185;BME280;20454;48.100;11.776;2022-10-18T14:20:27;96264.53;;;21.65;59.04
34185;BME280;20454;48.100;11.776;2022-10-18T14:25:37;96262.75;;;21.57;59.35
34185;BME280;20454;48.100;11.776;2022-10-18T14:31:04;96273.13;;;21.50;59.58
34185;BME280;20454;48.100;11.776;2022-10-18T14:33:36;96266.94;;;21.44;60.03
34185;BME280;20454;48.100;11.776;2022-10-18T14:36:21;96259.91;;;21.38;60.12
34185;BME280;20454;48.100;11.776;2022-10-18T14:39:05;96258.22;;;21.34;60.50
34185;BME280;20454;48.100;11.776;2022-10-18T14:41:36;96260.16;;;21.30;61.17
34185;BME280;20454;48.100;11.776;2022-10-18T14:44:33;96267.22;;;21.20;62.12
34185;BME280;20454;48.100;11.776;2022-10-18T14:47:25;96264.91;;;21.07;62.08
34185;BME280;20454;48.100;11.776;2022-10-18T14:49:52;96259.81;;;20.97;62.21
34185;BME280;20454;48.100;11.776;2022-10-18T14:52:25;96260.88;;;20.89;62.44
34185;BME280;20454;48.100;11.776;2022-10-18T14:54:54;96271.59;;;20.83;63.77
34185;BME280;20454;48.100;11.776;2022-10-18T14:57:35;96268.06;;;20.71;65.29
34185;BME280;20454;48.100;11.776;2022-10-18T15:00:07;96258.81;;;20.55;66.46
34185;BME280;20454;48.100;11.776;2022-10-18T15:02:37;96258.53;;;20.45;66.93
34185;BME280;20454;48.100;11.776;2022-10-18T15:05:20;96267.22;;;20.36;67.86
34185;BME280;20454;48.100;11.776;2022-10-18T15:07:47;96263.28;;;20.25;68.23
34185;BME280;20454;48.100;11.776;2022-10-18T15:10:31;96262.31;;;20.18;68.49
34185;BME280;20454;48.100;11.776;2022-10-18T15:13:00;96269.16;;;20.17;68.37
34185;BME280;20454;48.100;11.776;2022-10-18T15:15:32;96261.38;;;20.14;68.23
34185;BME280;20454;48.100;11.776;2022-10-18T15:17:59;96264.13;;;20.10;67.81
34185;BME280;20454;48.100;11.776;2022-10-18T15:20:28;96273.78;;;20.09;67.36
34185;BME280;20454;48.100;11.776;2022-10-18T15:23:28;96263.91;;;20.03;67.75
34185;BME280;20454;48.100;11.776;2022-10-18T15:26:04;96267.22;;;20.05;67.71
34185;BME280;20454;48.100;11.776;2022-10-18T15:28:57;96254.88;;;19.98;67.89
34185;BME280;20454;48.100;11.776;2022-10-18T15:31:27;96271.56;;;20.03;67.87
34185;BME280;20454;48.100;11.776;2022-10-18T15:36:31;96267.63;;;19.92;68.13
34185;BME280;20454;48.100;11.776;2022-10-18T15:39:27;96264.72;;;19.88;68.70
34185;BME280;20454;48.100;11.776;2022-10-18T15:41:57;96279.47;;;19.82;69.12
34185;BME280;20454;48.100;11.776;2022-10-18T15:44:49;96276.56;;;19.78;69.46
34185;BME280;20454;48.100;11.776;2022-10-18T15:47:18;96274.72;;;19.70;69.67
34185;BME280;20454;48.100;11.776;2022-10-18T15:49:50;96276.25;;;19.68;70.34
34185;BME280;20454;48.100;11.776;2022-10-18T15:52:37;96272.84;;;19.62;70.33
34185;BME280;20454;48.100;11.776;2022-10-18T15:58:26;96269.72;;;19.52;71.12
34185;BME280;20454;48.100;11.776;2022-10-18T16:00:59;96266.47;;;19.50;70.85
34185;BME280;20454;48.100;11.776;2022-10-18T16:03:26;96274.38;;;19.44;70.75
34185;BME280;20454;48.100;11.776;2022-10-18T16:05:58;96269.81;;;19.40;70.89
34185;BME280;20454;48.100;11.776;2022-10-18T16:08:28;96281.81;;;19.37;71.25
34185;BME280;20454;48.100;11.776;2022-10-18T16:11:01;96271.16;;;19.30;71.29
34185;BME280;20454;48.100;11.776;2022-10-18T16:13:28;96274.22;;;19.25;71.66
34185;BME280;20454;48.100;11.776;2022-10-18T16:15:53;96282.22;;;19.23;71.47
34185;BME280;20454;48.100;11.776;2022-10-18T16:18:25;96273.53;;;19.16;71.55
34185;BME280;20454;48.100;11.776;2022-10-18T16:20:51;96273.41;;;19.13;71.50
34185;BME280;20454;48.100;11.776;2022-10-18T16:23:22;96286.59;;;19.09;71.32
34185;BME280;20454;48.100;11.776;2022-10-18T16:25:49;96296.97;;;19.05;71.40
34185;BME280;20454;48.100;11.776;2022-10-18T16:28:22;96287.78;;;18.96;72.25
34185;BME280;20454;48.100;11.776;2022-10-18T16:30:58;96301.78;;;18.92;72.68